sensor_id;sensor_type;location;lat;lon;timestamp;P1;durP1;ratioP1;P2;durP2;ratioP2
77724;SDS011;66892;53.236;6.550;2023-03-23T00:02:11;1.08;;;0.77;;
77724;SDS011;66892;53.236;6.550;2023-03-23T00:04:37;1.23;;;0.77;;
77724;SDS011;66892;53.236;6.550;2023-03-23T00:07:04;1.38;;;0.80;;
77724;SDS011;66892;53.236;6.550;2023-03-23T00:09:30;1.77;;;0.70;;
77724;SDS011;66892;53.236;6.550;2023-03-23T00:12:00;0.82;;;0.70;;
77724;SDS011;66892;53.236;6.550;2023-03-23T00:14:31;0.90;;;0.80;;
77724;SDS011;66892;53.236;6.550;2023-03-23T00:17:06;0.98;;;0.80;;
77724;SDS011;66892;53.236;6.550;2023-03-23T00:19:35;1.50;;;1.00;;
77724;SDS011;66892;53.236;6.550;2023-03-23T00:22:13;1.17;;;0.70;;
77724;SDS011;66892;53.236;6.550;2023-03-23T00:24:40;1.20;;;0.73;;
77724;SDS011;66892;53.236;6.550;2023-03-23T00:27:07;1.27;;;0.80;;
77724;SDS011;66892;53.236;6.550;2023-03-23T00:29:34;0.82;;;0.70;;
77724;SDS011;66892;53.236;6.550;2023-03-23T00:32:00;1.30;;;0.93;;
77724;SDS011;66892;53.236;6.550;2023-03-23T00:34:27;0.88;;;0.70;;
77724;SDS011;66892;53.236;6.550;2023-03-23T00:36:58;1.23;;;0.75;;
77724;SDS011;66892;53.236;6.550;2023-03-23T00:39:26;1.30;;;0.75;;
77724;SDS011;66892;53.236;6.550;2023-03-23T00:41:54;1.33;;;0.90;;
77724;SDS011;66892;53.236;6.550;2023-03-23T00:44:26;1.45;;;0.90;;
77724;SDS011;66892;53.236;6.550;2023-03-23T00:46:53;1.73;;;1.10;;
77724;SDS011;66892;53.236;6.550;2023-03-23T00:49:22;2.08;;;1.20;;
77724;SDS011;66892;53.236;6.550;2023-03-23T00:54:18;1.75;;;1.17;;
77724;SDS011;66892;53.236;6.550;2023-03-23T00:56:46;2.47;;;1.55;;
77724;SDS011;66892;53.236;6.550;2023-03-23T00:59:13;2.00;;;1.20;;
77724;SDS011;66892;53.236;6.550;2023-03-23T01:01:39;2.13;;;1.30;;
77724;SDS011;66892;53.236;6.550;2023-03-23T01:04:07;2.33;;;1.45;;
77724;SDS011;66892;53.236;6.550;2023-03-23T01:06:34;2.55;;;1.27;;
77724;SDS011;66892;53.236;6.550;2023-03-23T01:09:04;2.00;;;1.20;;
77724;SDS011;66892;53.236;6.550;2023-03-23T01:11:32;1.83;;;1.17;;
77724;SDS011;66892;53.236;6.550;2023-03-23T01:14:00;2.22;;;1.20;;
77724;SDS011;66892;53.236;6.550;2023-03-23T01:16:27;2.10;;;1.10;;
77724;SDS011;66892;53.236;6.550;2023-03-23T01:18:53;1.73;;;0.85;;
77724;SDS011;66892;53.236;6.550;2023-03-23T01:21:20;1.50;;;0.80;;
77724;SDS011;66892;53.236;6.550;2023-03-23T01:23:47;1.50;;;0.80;;
77724;SDS011;66892;53.236;6.550;2023-03-23T01:26:14;0.77;;;0.70;;
77724;SDS011;66892;53.236;6.550;2023-03-23T01:28:42;1.48;;;0.80;;
77724;SDS011;66892;53.236;6.550;2023-03-23T01:31:12;0.75;;;0.60;;
77724;SDS011;66892;53.236;6.550;2023-03-23T01:33:40;0.80;;;0.60;;
77724;SDS011;66892;53.236;6.550;2023-03-23T01:36:07;0.90;;;0.60;;
77724;SDS011;66892;53.236;6.550;2023-03-23T01:38:35;1.02;;;0.80;;
77724;SDS011;66892;53.236;6.550;2023-03-23T01:41:02;0.85;;;0.60;;
77724;SDS011;66892;53.236;6.550;2023-03-23T01:43:28;1.40;;;0.90;;
77724;SDS011;66892;53.236;6.550;2023-03-23T01:45:55;1.17;;;0.88;;
77724;SDS011;66892;53.236;6.550;2023-03-23T01:48:23;1.83;;;0.90;;
77724;SDS011;66892;53.236;6.550;2023-03-23T01:50:53;1.63;;;1.00;;
77724;SDS011;66892;53.236;6.550;2023-03-23T01:53:21;1.90;;;1.00;;
77724;SDS011;66892;53.236;6.550;2023-03-23T01:55:50;1.77;;;1.20;;
77724;SDS011;66892;53.236;6.550;2023-03-23T01:58:20;1.45;;;0.90;;
77724;SDS011;66892;53.236;6.550;2023-03-23T02:00:52;1.70;;;1.10;;
77724;SDS011;66892;53.236;6.550;2023-03-23T02:03:20;1.55;;;0.93;;
77724;SDS011;66892;53.236;6.550;2023-03-23T02:05:48;2.13;;;1.10;;
77724;SDS011;66892;53.236;6.550;2023-03-23T02:08:16;2.22;;;1.10;;
77724;SDS011;66892;53.236;6.550;2023-03-23T02:10:43;1.75;;;1.00;;
77724;SDS011;66892;53.236;6.550;2023-03-23T02:13:10;1.75;;;0.93;;
77724;SDS011;66892;53.236;6.550;2023-03-23T02:15:41;1.30;;;0.90;;
77724;SDS011;66892;53.236;6.550;2023-03-23T02:18:15;1.50;;;0.90;;
77724;SDS011;66892;53.236;6.550;2023-03-23T02:20:56;1.52;;;0.93;;
77724;SDS011;66892;53.236;6.550;2023-03-23T02:23:42;1.75;;;1.00;;
77724;SDS011;66892;53.236;6.550;2023-03-23T02:26:31;1.73;;;0.90;;
77724;SDS011;66892;53.236;6.550;2023-03-23T02:29:16;1.58;;;0.90;;
77724;SDS011;66892;53.236;6.550;2023-03-23T02:32:01;1.60;;;0.90;;
77724;SDS011;66892;53.236;6.550;2023-03-23T02:34:38;1.35;;;0.90;;
77724;SDS011;66892;53.236;6.550;2023-03-23T02:37:07;1.88;;;0.90;;
77724;SDS011;66892;53.236;6.550;2023-03-23T02:39:40;1.45;;;0.90;;
77724;SDS011;66892;53.236;6.550;2023-03-23T02:42:11;1.95;;;1.10;;
77724;SDS011;66892;53.236;6.550;2023-03-23T02:44:41;1.90;;;1.00;;
77724;SDS011;66892;53.236;6.550;2023-03-23T02:47:12;1.15;;;0.70;;
77724;SDS011;66892;53.236;6.550;2023-03-23T02:49:43;1.42;;;1.17;;
77724;SDS011;66892;53.236;6.550;2023-03-23T02:52:12;2.30;;;1.00;;
77724;SDS011;66892;53.236;6.550;2023-03-23T02:54:42;1.67;;;0.90;;
77724;SDS011;66892;53.236;6.550;2023-03-23T02:57:10;1.17;;;0.80;;
77724;SDS011;66892;53.236;6.550;2023-03-23T02:59:36;1.33;;;0.80;;
77724;SDS011;66892;53.236;6.550;2023-03-23T03:02:05;1.52;;;1.00;;
77724;SDS011;66892;53.236;6.550;2023-03-23T03:04:35;1.48;;;0.70;;
77724;SDS011;66892;53.236;6.550;2023-03-23T03:07:21;1.35;;;0.82;;
77724;SDS011;66892;53.236;6.550;2023-03-23T03:09:55;1.83;;;0.90;;
77724;SDS011;66892;53.236;6.550;2023-03-23T03:12:27;1.52;;;0.90;;
77724;SDS011;66892;53.236;6.550;2023-03-23T03:15:02;0.98;;;0.82;;
77724;SDS011;66892;53.236;6.550;2023-03-23T03:17:38;1.27;;;0.93;;
77724;SDS011;66892;53.236;6.550;2023-03-23T03:20:09;1.00;;;0.70;;
77724;SDS011;66892;53.236;6.550;2023-03-23T03:22:41;1.30;;;0.75;;
77724;SDS011;66892;53.236;6.550;2023-03-23T03:25:10;1.95;;;0.80;;
77724;SDS011;66892;53.236;6.550;2023-03-23T03:27:38;1.15;;;0.70;;
77724;SDS011;66892;53.236;6.550;2023-03-23T03:30:06;1.00;;;0.70;;
77724;SDS011;66892;53.236;6.550;2023-03-23T03:32:38;1.20;;;0.70;;
77724;SDS011;66892;53.236;6.550;2023-03-23T03:35:09;1.15;;;0.70;;
77724;SDS011;66892;53.236;6.550;2023-03-23T03:37:36;1.40;;;0.80;;
77724;SDS011;66892;53.236;6.550;2023-03-23T03:40:07;1.45;;;0.80;;
77724;SDS011;66892;53.236;6.550;2023-03-23T03:42:37;1.20;;;0.90;;
77724;SDS011;66892;53.236;6.550;2023-03-23T03:45:04;1.17;;;0.70;;
77724;SDS011;66892;53.236;6.550;2023-03-23T03:47:31;1.25;;;0.80;;
77724;SDS011;66892;53.236;6.550;2023-03-23T03:49:57;0.90;;;0.60;;
77724;SDS011;66892;53.236;6.550;2023-03-23T03:52:23;1.08;;;0.90;;
77724;SDS011;66892;53.236;6.550;2023-03-23T03:54:49;1.33;;;0.70;;
77724;SDS011;66892;53.236;6.550;2023-03-23T03:57:17;1.20;;;0.70;;
77724;SDS011;66892;53.236;6.550;2023-03-23T03:59:43;1.33;;;0.75;;
77724;SDS011;66892;53.236;6.550;2023-03-23T04:02:11;1.00;;;0.63;;
77724;SDS011;66892;53.236;6.550;2023-03-23T04:04:40;1.83;;;0.90;;
77724;SDS011;66892;53.236;6.550;2023-03-23T04:07:07;0.98;;;0.80;;
77724;SDS011;66892;53.236;6.550;2023-03-23T04:09:36;1.20;;;0.70;;
77724;SDS011;66892;53.236;6.550;2023-03-23T04:12:02;1.92;;;0.80;;
77724;SDS011;66892;53.236;6.550;2023-03-23T04:14:30;1.55;;;0.90;;
77724;SDS011;66892;53.236;6.550;2023-03-23T04:16:56;1.13;;;0.70;;
77724;SDS011;66892;53.236;6.550;2023-03-23T04:19:22;1.52;;;0.90;;
77724;SDS011;66892;53.236;6.550;2023-03-23T04:21:48;1.13;;;0.70;;
77724;SDS011;66892;53.236;6.550;2023-03-23T04:24:14;1.10;;;0.63;;
77724;SDS011;66892;53.236;6.550;2023-03-23T04:26:40;0.95;;;0.47;;
77724;SDS011;66892;53.236;6.550;2023-03-23T04:29:07;0.77;;;0.60;;
77724;SDS011;66892;53.236;6.550;2023-03-23T04:31:35;0.75;;;0.52;;
77724;SDS011;66892;53.236;6.550;2023-03-23T04:34:01;0.90;;;0.60;;
77724;SDS011;66892;53.236;6.550;2023-03-23T04:36:27;1.08;;;0.63;;
77724;SDS011;66892;53.236;6.550;2023-03-23T04:38:54;1.20;;;0.60;;
77724;SDS011;66892;53.236;6.550;2023-03-23T04:41:21;1.10;;;0.70;;
77724;SDS011;66892;53.236;6.550;2023-03-23T04:43:47;1.13;;;0.60;;
77724;SDS011;66892;53.236;6.550;2023-03-23T04:46:18;1.08;;;0.68;;
77724;SDS011;66892;53.236;6.550;2023-03-23T04:48:46;0.82;;;0.57;;
77724;SDS011;66892;53.236;6.550;2023-03-23T04:51:12;0.88;;;0.60;;
77724;SDS011;66892;53.236;6.550;2023-03-23T04:53:39;1.33;;;0.60;;
77724;SDS011;66892;53.236;6.550;2023-03-23T04:56:05;1.38;;;0.85;;
77724;SDS011;66892;53.236;6.550;2023-03-23T04:58:31;1.17;;;0.77;;
77724;SDS011;66892;53.236;6.550;2023-03-23T05:00:59;1.52;;;0.77;;
77724;SDS011;66892;53.236;6.550;2023-03-23T05:03:25;1.17;;;0.63;;
77724;SDS011;66892;53.236;6.550;2023-03-23T05:05:54;0.93;;;0.57;;
77724;SDS011;66892;53.236;6.550;2023-03-23T05:08:20;1.17;;;0.70;;
77724;SDS011;66892;53.236;6.550;2023-03-23T05:10:49;1.38;;;0.80;;
77724;SDS011;66892;53.236;6.550;2023-03-23T05:13:16;1.33;;;0.85;;
77724;SDS011;66892;53.236;6.550;2023-03-23T05:15:42;1.75;;;0.80;;
77724;SDS011;66892;53.236;6.550;2023-03-23T05:18:08;2.05;;;0.82;;
77724;SDS011;66892;53.236;6.550;2023-03-23T05:20:35;0.95;;;0.73;;
77724;SDS011;66892;53.236;6.550;2023-03-23T05:23:03;1.20;;;0.80;;
77724;SDS011;66892;53.236;6.550;2023-03-23T05:25:30;1.27;;;0.63;;
77724;SDS011;66892;53.236;6.550;2023-03-23T05:27:56;1.58;;;0.70;;
77724;SDS011;66892;53.236;6.550;2023-03-23T05:30:22;1.48;;;0.73;;
77724;SDS011;66892;53.236;6.550;2023-03-23T05:32:48;1.52;;;0.80;;
77724;SDS011;66892;53.236;6.550;2023-03-23T05:35:18;1.45;;;0.80;;
77724;SDS011;66892;53.236;6.550;2023-03-23T05:37:45;1.98;;;1.00;;
77724;SDS011;66892;53.236;6.550;2023-03-23T05:40:13;0.75;;;0.50;;
77724;SDS011;66892;53.236;6.550;2023-03-23T05:42:40;1.35;;;0.57;;
77724;SDS011;66892;53.236;6.550;2023-03-23T05:45:07;1.48;;;0.80;;
77724;SDS011;66892;53.236;6.550;2023-03-23T05:47:36;1.45;;;0.75;;
77724;SDS011;66892;53.236;6.550;2023-03-23T05:50:03;1.88;;;0.77;;
77724;SDS011;66892;53.236;6.550;2023-03-23T05:52:30;2.25;;;1.10;;
77724;SDS011;66892;53.236;6.550;2023-03-23T05:54:58;2.22;;;0.90;;
77724;SDS011;66892;53.236;6.550;2023-03-23T05:57:26;2.10;;;0.82;;
77724;SDS011;66892;53.236;6.550;2023-03-23T05:59:53;1.70;;;0.80;;
77724;SDS011;66892;53.236;6.550;2023-03-23T06:02:19;2.33;;;1.05;;
77724;SDS011;66892;53.236;6.550;2023-03-23T06:04:44;2.15;;;0.95;;
77724;SDS011;66892;53.236;6.550;2023-03-23T06:07:11;2.53;;;1.00;;
77724;SDS011;66892;53.236;6.550;2023-03-23T06:09:40;1.98;;;0.90;;
77724;SDS011;66892;53.236;6.550;2023-03-23T06:12:06;2.47;;;1.10;;
77724;SDS011;66892;53.236;6.550;2023-03-23T06:14:35;2.58;;;1.05;;
77724;SDS011;66892;53.236;6.550;2023-03-23T06:17:01;2.55;;;1.00;;
77724;SDS011;66892;53.236;6.550;2023-03-23T06:19:27;3.13;;;1.10;;
77724;SDS011;66892;53.236;6.550;2023-03-23T06:21:54;2.20;;;0.80;;
77724;SDS011;66892;53.236;6.550;2023-03-23T06:24:20;2.67;;;1.15;;
77724;SDS011;66892;53.236;6.550;2023-03-23T06:26:47;2.33;;;1.00;;
77724;SDS011;66892;53.236;6.550;2023-03-23T06:29:13;2.17;;;0.82;;
77724;SDS011;66892;53.236;6.550;2023-03-23T06:31:41;2.28;;;0.82;;
77724;SDS011;66892;53.236;6.550;2023-03-23T06:34:10;2.17;;;0.85;;
77724;SDS011;66892;53.236;6.550;2023-03-23T06:36:37;2.33;;;1.10;;
77724;SDS011;66892;53.236;6.550;2023-03-23T06:39:03;2.42;;;0.90;;
77724;SDS011;66892;53.236;6.550;2023-03-23T06:41:30;2.28;;;0.85;;
77724;SDS011;66892;53.236;6.550;2023-03-23T06:43:56;1.90;;;0.80;;
77724;SDS011;66892;53.236;6.550;2023-03-23T06:46:23;2.10;;;1.00;;
77724;SDS011;66892;53.236;6.550;2023-03-23T06:48:50;1.63;;;0.80;;
77724;SDS011;66892;53.236;6.550;2023-03-23T06:51:17;2.05;;;1.00;;
77724;SDS011;66892;53.236;6.550;2023-03-23T06:53:43;1.65;;;0.80;;
77724;SDS011;66892;53.236;6.550;2023-03-23T06:56:09;1.75;;;0.82;;
77724;SDS011;66892;53.236;6.550;2023-03-23T06:58:37;1.33;;;0.70;;
77724;SDS011;66892;53.236;6.550;2023-03-23T07:01:03;1.27;;;0.65;;
77724;SDS011;66892;53.236;6.550;2023-03-23T07:03:30;1.98;;;0.77;;
77724;SDS011;66892;53.236;6.550;2023-03-23T07:05:58;1.38;;;0.88;;
77724;SDS011;66892;53.236;6.550;2023-03-23T07:08:25;1.85;;;0.80;;
77724;SDS011;66892;53.236;6.550;2023-03-23T07:10:52;1.75;;;0.93;;
77724;SDS011;66892;53.236;6.550;2023-03-23T07:13:18;1.63;;;0.68;;
77724;SDS011;66892;53.236;6.550;2023-03-23T07:15:44;1.20;;;0.68;;
77724;SDS011;66892;53.236;6.550;2023-03-23T07:18:11;1.92;;;0.93;;
77724;SDS011;66892;53.236;6.550;2023-03-23T07:20:37;1.63;;;0.75;;
77724;SDS011;66892;53.236;6.550;2023-03-23T07:23:04;1.50;;;0.82;;
77724;SDS011;66892;53.236;6.550;2023-03-23T07:25:31;2.22;;;0.98;;
77724;SDS011;66892;53.236;6.550;2023-03-23T07:27:58;2.05;;;0.82;;
77724;SDS011;66892;53.236;6.550;2023-03-23T07:30:24;2.78;;;1.00;;
77724;SDS011;66892;53.236;6.550;2023-03-23T07:32:51;1.30;;;0.73;;
77724;SDS011;66892;53.236;6.550;2023-03-23T07:35:18;2.28;;;0.98;;
77724;SDS011;66892;53.236;6.550;2023-03-23T07:37:44;2.45;;;1.10;;
77724;SDS011;66892;53.236;6.550;2023-03-23T07:40:12;1.92;;;0.90;;
77724;SDS011;66892;53.236;6.550;2023-03-23T07:42:42;2.13;;;1.05;;
77724;SDS011;66892;53.236;6.550;2023-03-23T07:45:09;1.90;;;0.90;;
77724;SDS011;66892;53.236;6.550;2023-03-23T07:47:36;3.00;;;1.23;;
77724;SDS011;66892;53.236;6.550;2023-03-23T07:50:03;2.35;;;1.20;;
77724;SDS011;66892;53.236;6.550;2023-03-23T07:52:29;2.72;;;1.10;;
77724;SDS011;66892;53.236;6.550;2023-03-23T07:54:56;3.15;;;1.15;;
77724;SDS011;66892;53.236;6.550;2023-03-23T07:57:24;3.08;;;1.10;;
77724;SDS011;66892;53.236;6.550;2023-03-23T07:59:50;2.67;;;1.15;;
77724;SDS011;66892;53.236;6.550;2023-03-23T08:02:16;2.55;;;1.20;;
77724;SDS011;66892;53.236;6.550;2023-03-23T08:04:42;3.63;;;1.20;;
77724;SDS011;66892;53.236;6.550;2023-03-23T08:07:10;2.53;;;1.00;;
77724;SDS011;66892;53.236;6.550;2023-03-23T08:09:38;2.92;;;1.20;;
77724;SDS011;66892;53.236;6.550;2023-03-23T08:12:04;2.90;;;1.10;;
77724;SDS011;66892;53.236;6.550;2023-03-23T08:14:32;3.00;;;1.23;;
77724;SDS011;66892;53.236;6.550;2023-03-23T08:16:58;2.67;;;1.10;;
77724;SDS011;66892;53.236;6.550;2023-03-23T08:19:24;2.45;;;1.00;;
77724;SDS011;66892;53.236;6.550;2023-03-23T08:21:50;3.10;;;1.30;;
77724;SDS011;66892;53.236;6.550;2023-03-23T08:24:16;2.55;;;1.13;;
77724;SDS011;66892;53.236;6.550;2023-03-23T08:26:42;2.75;;;1.30;;
77724;SDS011;66892;53.236;6.550;2023-03-23T08:29:08;3.28;;;1.35;;
77724;SDS011;66892;53.236;6.550;2023-03-23T08:31:35;2.58;;;1.20;;
77724;SDS011;66892;53.236;6.550;2023-03-23T08:34:03;2.60;;;1.23;;
77724;SDS011;66892;53.236;6.550;2023-03-23T08:36:34;2.40;;;1.05;;
77724;SDS011;66892;53.236;6.550;2023-03-23T08:39:03;2.70;;;1.15;;
77724;SDS011;66892;53.236;6.550;2023-03-23T08:41:31;2.88;;;1.30;;
77724;SDS011;66892;53.236;6.550;2023-03-23T08:43:57;2.70;;;1.50;;
77724;SDS011;66892;53.236;6.550;2023-03-23T08:46:23;2.15;;;1.00;;
77724;SDS011;66892;53.236;6.550;2023-03-23T08:48:50;2.92;;;1.30;;
77724;SDS011;66892;53.236;6.550;2023-03-23T08:51:16;2.88;;;1.25;;
77724;SDS011;66892;53.236;6.550;2023-03-23T08:53:42;2.25;;;0.85;;
77724;SDS011;66892;53.236;6.550;2023-03-23T08:56:10;2.88;;;1.20;;
77724;SDS011;66892;53.236;6.550;2023-03-23T08:58:38;2.45;;;1.10;;
77724;SDS011;66892;53.236;6.550;2023-03-23T09:01:05;2.13;;;1.00;;
77724;SDS011;66892;53.236;6.550;2023-03-23T09:03:33;3.00;;;1.27;;
77724;SDS011;66892;53.236;6.550;2023-03-23T09:06:02;3.47;;;1.30;;
77724;SDS011;66892;53.236;6.550;2023-03-23T09:08:30;2.88;;;1.20;;
77724;SDS011;66892;53.236;6.550;2023-03-23T09:10:58;2.58;;;1.20;;
77724;SDS011;66892;53.236;6.550;2023-03-23T09:13:24;2.90;;;1.17;;
77724;SDS011;66892;53.236;6.550;2023-03-23T09:15:51;2.50;;;1.00;;
77724;SDS011;66892;53.236;6.550;2023-03-23T09:18:17;2.83;;;1.20;;
77724;SDS011;66892;53.236;6.550;2023-03-23T09:20:44;2.80;;;1.10;;
77724;SDS011;66892;53.236;6.550;2023-03-23T09:23:12;2.35;;;1.10;;
77724;SDS011;66892;53.236;6.550;2023-03-23T09:25:38;3.05;;;1.23;;
77724;SDS011;66892;53.236;6.550;2023-03-23T09:28:05;2.92;;;1.10;;
77724;SDS011;66892;53.236;6.550;2023-03-23T09:30:32;2.53;;;1.10;;
77724;SDS011;66892;53.236;6.550;2023-03-23T09:33:01;2.85;;;1.20;;
77724;SDS011;66892;53.236;6.550;2023-03-23T09:35:28;2.35;;;1.00;;
77724;SDS011;66892;53.236;6.550;2023-03-23T09:37:55;2.55;;;1.13;;
77724;SDS011;66892;53.236;6.550;2023-03-23T09:40:24;2.25;;;1.10;;
77724;SDS011;66892;53.236;6.550;2023-03-23T09:42:58;2.85;;;1.20;;
77724;SDS011;66892;53.236;6.550;2023-03-23T09:45:33;2.53;;;1.10;;
77724;SDS011;66892;53.236;6.550;2023-03-23T09:48:09;2.20;;;1.15;;
77724;SDS011;66892;53.236;6.550;2023-03-23T09:50:52;2.70;;;1.50;;
77724;SDS011;66892;53.236;6.550;2023-03-23T09:53:26;2.03;;;1.00;;
77724;SDS011;66892;53.236;6.550;2023-03-23T09:56:02;2.30;;;1.10;;
77724;SDS011;66892;53.236;6.550;2023-03-23T09:58:38;2.47;;;1.00;;
77724;SDS011;66892;53.236;6.550;2023-03-23T10:01:13;2.55;;;1.20;;
77724;SDS011;66892;53.236;6.550;2023-03-23T10:03:44;2.25;;;0.90;;
77724;SDS011;66892;53.236;6.550;2023-03-23T10:06:11;2.00;;;0.90;;
77724;SDS011;66892;53.236;6.550;2023-03-23T10:08:43;2.40;;;1.10;;
77724;SDS011;66892;53.236;6.550;2023-03-23T10:11:14;3.00;;;1.35;;
77724;SDS011;66892;53.236;6.550;2023-03-23T10:13:54;2.35;;;1.13;;
77724;SDS011;66892;53.236;6.550;2023-03-23T10:16:29;2.28;;;1.10;;
77724;SDS011;66892;53.236;6.550;2023-03-23T10:19:01;2.40;;;0.95;;
77724;SDS011;66892;53.236;6.550;2023-03-23T10:21:33;2.42;;;1.17;;
77724;SDS011;66892;53.236;6.550;2023-03-23T10:24:05;2.03;;;1.10;;
77724;SDS011;66892;53.236;6.550;2023-03-23T10:26:39;1.67;;;0.93;;
77724;SDS011;66892;53.236;6.550;2023-03-23T10:29:14;1.80;;;0.80;;
77724;SDS011;66892;53.236;6.550;2023-03-23T10:31:45;1.88;;;0.80;;
77724;SDS011;66892;53.236;6.550;2023-03-23T10:34:17;2.17;;;0.90;;
77724;SDS011;66892;53.236;6.550;2023-03-23T10:36:51;2.25;;;1.10;;
77724;SDS011;66892;53.236;6.550;2023-03-23T10:39:24;2.53;;;1.00;;
77724;SDS011;66892;53.236;6.550;2023-03-23T10:41:56;1.90;;;0.88;;
77724;SDS011;66892;53.236;6.550;2023-03-23T10:44:28;2.13;;;1.02;;
77724;SDS011;66892;53.236;6.550;2023-03-23T10:46:56;2.45;;;1.17;;
77724;SDS011;66892;53.236;6.550;2023-03-23T10:49:26;2.40;;;0.93;;
77724;SDS011;66892;53.236;6.550;2023-03-23T10:51:57;1.50;;;0.77;;
77724;SDS011;66892;53.236;6.550;2023-03-23T10:54:32;1.88;;;0.85;;
77724;SDS011;66892;53.236;6.550;2023-03-23T10:57:13;2.28;;;1.05;;
77724;SDS011;66892;53.236;6.550;2023-03-23T10:59:47;2.53;;;1.00;;
77724;SDS011;66892;53.236;6.550;2023-03-23T11:02:14;2.10;;;0.95;;
77724;SDS011;66892;53.236;6.550;2023-03-23T11:04:44;1.88;;;0.82;;
77724;SDS011;66892;53.236;6.550;2023-03-23T11:07:15;2.22;;;0.90;;
77724;SDS011;66892;53.236;6.550;2023-03-23T11:09:51;2.38;;;1.00;;
77724;SDS011;66892;53.236;6.550;2023-03-23T11:12:20;2.65;;;1.33;;
77724;SDS011;66892;53.236;6.550;2023-03-23T11:14:46;1.73;;;0.95;;
77724;SDS011;66892;53.236;6.550;2023-03-23T11:17:20;2.35;;;0.90;;
77724;SDS011;66892;53.236;6.550;2023-03-23T11:19:47;1.98;;;1.00;;
77724;SDS011;66892;53.236;6.550;2023-03-23T11:22:15;2.72;;;1.20;;
77724;SDS011;66892;53.236;6.550;2023-03-23T11:24:46;1.98;;;0.80;;
77724;SDS011;66892;53.236;6.550;2023-03-23T11:27:13;2.28;;;1.27;;
77724;SDS011;66892;53.236;6.550;2023-03-23T11:29:46;2.22;;;0.95;;
77724;SDS011;66892;53.236;6.550;2023-03-23T11:32:15;2.10;;;1.05;;
77724;SDS011;66892;53.236;6.550;2023-03-23T11:34:43;2.08;;;0.85;;
77724;SDS011;66892;53.236;6.550;2023-03-23T11:37:13;2.05;;;0.80;;
77724;SDS011;66892;53.236;6.550;2023-03-23T11:39:46;2.30;;;1.02;;
77724;SDS011;66892;53.236;6.550;2023-03-23T11:42:17;2.15;;;1.08;;
77724;SDS011;66892;53.236;6.550;2023-03-23T11:44:46;1.88;;;0.85;;
77724;SDS011;66892;53.236;6.550;2023-03-23T11:47:16;2.08;;;0.90;;
77724;SDS011;66892;53.236;6.550;2023-03-23T11:49:50;1.42;;;0.75;;
77724;SDS011;66892;53.236;6.550;2023-03-23T11:52:23;2.08;;;1.10;;
77724;SDS011;66892;53.236;6.550;2023-03-23T11:54:59;1.98;;;0.88;;
77724;SDS011;66892;53.236;6.550;2023-03-23T11:57:29;1.63;;;0.70;;
77724;SDS011;66892;53.236;6.550;2023-03-23T11:59:57;2.10;;;0.73;;
77724;SDS011;66892;53.236;6.550;2023-03-23T12:02:36;1.13;;;0.60;;
77724;SDS011;66892;53.236;6.550;2023-03-23T12:08:13;1.70;;;0.90;;
77724;SDS011;66892;53.236;6.550;2023-03-23T12:10:51;1.77;;;0.80;;
77724;SDS011;66892;53.236;6.550;2023-03-23T12:13:31;1.92;;;0.90;;
77724;SDS011;66892;53.236;6.550;2023-03-23T12:16:08;1.33;;;0.73;;
77724;SDS011;66892;53.236;6.550;2023-03-23T12:18:44;1.75;;;0.80;;
77724;SDS011;66892;53.236;6.550;2023-03-23T12:21:17;1.60;;;0.73;;
77724;SDS011;66892;53.236;6.550;2023-03-23T12:23:52;1.85;;;0.80;;
77724;SDS011;66892;53.236;6.550;2023-03-23T12:26:30;2.10;;;0.93;;
77724;SDS011;66892;53.236;6.550;2023-03-23T12:29:16;1.48;;;0.77;;
77724;SDS011;66892;53.236;6.550;2023-03-23T12:31:52;1.45;;;0.73;;
77724;SDS011;66892;53.236;6.550;2023-03-23T12:34:30;1.33;;;0.70;;
77724;SDS011;66892;53.236;6.550;2023-03-23T12:37:10;2.05;;;1.02;;
77724;SDS011;66892;53.236;6.550;2023-03-23T12:39:50;1.92;;;0.80;;
77724;SDS011;66892;53.236;6.550;2023-03-23T12:42:27;1.77;;;0.80;;
77724;SDS011;66892;53.236;6.550;2023-03-23T12:45:01;1.88;;;0.70;;
77724;SDS011;66892;53.236;6.550;2023-03-23T12:47:40;1.85;;;0.90;;
77724;SDS011;66892;53.236;6.550;2023-03-23T12:50:12;1.67;;;0.70;;
77724;SDS011;66892;53.236;6.550;2023-03-23T12:52:45;1.42;;;0.80;;
77724;SDS011;66892;53.236;6.550;2023-03-23T12:55:19;1.45;;;0.70;;
77724;SDS011;66892;53.236;6.550;2023-03-23T12:57:52;1.27;;;0.70;;
77724;SDS011;66892;53.236;6.550;2023-03-23T13:00:25;1.48;;;0.70;;
77724;SDS011;66892;53.236;6.550;2023-03-23T13:02:58;1.77;;;0.88;;
77724;SDS011;66892;53.236;6.550;2023-03-23T13:05:28;1.52;;;0.80;;
77724;SDS011;66892;53.236;6.550;2023-03-23T13:08:03;1.80;;;0.70;;
77724;SDS011;66892;53.236;6.550;2023-03-23T13:10:37;1.50;;;0.80;;
77724;SDS011;66892;53.236;6.550;2023-03-23T13:13:07;1.75;;;0.98;;
77724;SDS011;66892;53.236;6.550;2023-03-23T13:15:41;1.80;;;0.90;;
77724;SDS011;66892;53.236;6.550;2023-03-23T13:18:16;1.60;;;0.70;;
77724;SDS011;66892;53.236;6.550;2023-03-23T13:20:54;1.88;;;0.80;;
77724;SDS011;66892;53.236;6.550;2023-03-23T13:23:26;1.30;;;0.70;;
77724;SDS011;66892;53.236;6.550;2023-03-23T13:25:59;1.88;;;0.75;;
77724;SDS011;66892;53.236;6.550;2023-03-23T13:28:27;1.40;;;0.73;;
77724;SDS011;66892;53.236;6.550;2023-03-23T13:30:55;1.73;;;0.65;;
77724;SDS011;66892;53.236;6.550;2023-03-23T13:33:24;1.77;;;0.93;;
77724;SDS011;66892;53.236;6.550;2023-03-23T13:35:51;1.35;;;0.80;;
77724;SDS011;66892;53.236;6.550;2023-03-23T13:38:18;2.03;;;0.80;;
77724;SDS011;66892;53.236;6.550;2023-03-23T13:40:50;1.63;;;0.65;;
77724;SDS011;66892;53.236;6.550;2023-03-23T13:43:24;1.42;;;0.73;;
77724;SDS011;66892;53.236;6.550;2023-03-23T13:45:53;2.00;;;1.00;;
77724;SDS011;66892;53.236;6.550;2023-03-23T13:48:22;2.22;;;0.80;;
77724;SDS011;66892;53.236;6.550;2023-03-23T13:50:52;1.92;;;1.08;;
77724;SDS011;66892;53.236;6.550;2023-03-23T13:53:25;1.10;;;0.70;;
77724;SDS011;66892;53.236;6.550;2023-03-23T13:56:13;2.30;;;1.00;;
77724;SDS011;66892;53.236;6.550;2023-03-23T13:58:46;1.73;;;0.85;;
77724;SDS011;66892;53.236;6.550;2023-03-23T14:01:15;1.35;;;0.70;;
77724;SDS011;66892;53.236;6.550;2023-03-23T14:03:43;2.03;;;0.85;;
77724;SDS011;66892;53.236;6.550;2023-03-23T14:06:18;2.20;;;0.90;;
77724;SDS011;66892;53.236;6.550;2023-03-23T14:08:48;1.30;;;0.80;;
77724;SDS011;66892;53.236;6.550;2023-03-23T14:11:17;1.65;;;0.90;;
77724;SDS011;66892;53.236;6.550;2023-03-23T14:13:50;1.55;;;0.80;;
77724;SDS011;66892;53.236;6.550;2023-03-23T14:16:26;1.45;;;0.73;;
77724;SDS011;66892;53.236;6.550;2023-03-23T14:18:59;1.45;;;0.95;;
77724;SDS011;66892;53.236;6.550;2023-03-23T14:21:32;1.58;;;0.75;;
77724;SDS011;66892;53.236;6.550;2023-03-23T14:24:02;1.88;;;0.80;;
77724;SDS011;66892;53.236;6.550;2023-03-23T14:26:32;1.38;;;0.77;;
77724;SDS011;66892;53.236;6.550;2023-03-23T14:29:00;1.58;;;0.70;;
77724;SDS011;66892;53.236;6.550;2023-03-23T14:31:26;1.70;;;0.90;;
77724;SDS011;66892;53.236;6.550;2023-03-23T14:33:54;1.50;;;0.75;;
77724;SDS011;66892;53.236;6.550;2023-03-23T14:36:22;1.80;;;0.90;;
77724;SDS011;66892;53.236;6.550;2023-03-23T14:38:56;1.48;;;0.77;;
77724;SDS011;66892;53.236;6.550;2023-03-23T14:41:27;1.77;;;0.82;;
77724;SDS011;66892;53.236;6.550;2023-03-23T14:43:54;1.83;;;0.90;;
77724;SDS011;66892;53.236;6.550;2023-03-23T14:46:20;1.00;;;0.60;;
77724;SDS011;66892;53.236;6.550;2023-03-23T14:48:47;1.52;;;0.68;;
77724;SDS011;66892;53.236;6.550;2023-03-23T14:51:17;1.75;;;0.80;;
77724;SDS011;66892;53.236;6.550;2023-03-23T14:53:44;1.70;;;0.90;;
77724;SDS011;66892;53.236;6.550;2023-03-23T14:56:12;1.45;;;0.70;;
77724;SDS011;66892;53.236;6.550;2023-03-23T14:58:43;1.60;;;0.80;;
77724;SDS011;66892;53.236;6.550;2023-03-23T15:01:10;1.33;;;0.90;;
77724;SDS011;66892;53.236;6.550;2023-03-23T15:03:39;1.35;;;0.70;;
77724;SDS011;66892;53.236;6.550;2023-03-23T15:06:10;1.23;;;0.73;;
77724;SDS011;66892;53.236;6.550;2023-03-23T15:08:40;1.55;;;0.65;;